Time;durP1;ratioP1;P1;durP2;ratioP2;P2;SDS_P1;SDS_P2;PMS_P1;PMS_P2;Temp;Humidity;BMP_temperature;BMP_pressure;BME280_temperature;BME280_humidity;BME280_pressure;Samples;Min_cycle;Max_cycle;Signal;HPM_P1;HPM_P2
2024/01/29 00:01:58;;;;;;;10.45;7.13;;;;;;;6.42;100.00;102319.84;10414141;28;20417;-66
2024/01/29 00:06:59;;;;;;;7.72;6.68;;;;;;;6.41;100.00;102321.66;10429339;28;20041;-66
2024/01/29 00:11:59;;;;;;;7.93;5.95;;;;;;;6.43;100.00;102321.53;10413216;28;20037;-67
2024/01/29 00:17:02;;;;;;;7.25;5.90;;;;;;;6.31;100.00;102309.16;10413001;28;20077;-65
2024/01/29 00:22:02;;;;;;;10.20;6.10;;;;;;;6.33;100.00;102313.44;10413090;28;20029;-67
2024/01/29 00:27:03;;;;;;;9.48;7.28;;;;;;;6.23;100.00;102324.16;10411439;28;20041;-67
2024/01/29 00:32:05;;;;;;;10.13;6.85;;;;;;;6.21;100.00;102325.25;10412756;28;20556;-67
2024/01/29 00:37:05;;;;;;;11.30;6.40;;;;;;;6.23;100.00;102331.38;10412432;28;20457;-67
2024/01/29 00:42:05;;;;;;;8.15;6.53;;;;;;;6.13;100.00;102339.38;10410826;28;20091;-67
2024/01/29 00:47:06;;;;;;;6.10;5.50;;;;;;;6.02;100.00;102329.53;10410573;28;20150;-67
2024/01/29 00:52:06;;;;;;;11.73;7.70;;;;;;;5.97;100.00;102331.78;10443492;28;20056;-66
2024/01/29 00:57:07;;;;;;;8.48;6.90;;;;;;;5.86;100.00;102333.66;10443049;28;20426;-66
2024/01/29 01:02:07;;;;;;;13.73;8.07;;;;;;;5.70;100.00;102337.66;10411404;28;20044;-65
2024/01/29 01:07:07;;;;;;;12.80;7.90;;;;;;;5.66;100.00;102336.22;10411349;28;20033;-66
2024/01/29 01:12:08;;;;;;;17.60;7.13;;;;;;;5.68;100.00;102347.69;10411351;28;20045;-66
2024/01/29 01:17:08;;;;;;;11.98;7.47;;;;;;;5.64;100.00;102359.66;10410282;28;20045;-67
2024/01/29 01:22:09;;;;;;;8.48;6.80;;;;;;;5.55;100.00;102353.25;10393502;28;20034;-66
2024/01/29 01:27:11;;;;;;;9.60;7.60;;;;;;;5.56;100.00;102340.66;10410269;28;20056;-66
2024/01/29 01:32:12;;;;;;;7.93;7.13;;;;;;;5.52;100.00;102336.50;10410325;28;20478;-66
2024/01/29 01:37:12;;;;;;;9.82;7.75;;;;;;;5.43;100.00;102337.31;10442406;28;20116;-66
2024/01/29 01:42:13;;;;;;;8.13;6.88;;;;;;;5.38;100.00;102339.50;10409277;28;20076;-66
2024/01/29 01:47:13;;;;;;;7.63;6.82;;;;;;;5.32;100.00;102341.72;10410391;28;20099;-66
2024/01/29 01:52:17;;;;;;;7.70;6.90;;;;;;;5.21;100.00;102346.28;10458886;28;20501;-66
2024/01/29 01:57:18;;;;;;;8.13;7.15;;;;;;;5.33;100.00;102348.81;10441112;28;20036;-67
2024/01/29 02:02:18;;;;;;;10.18;7.95;;;;;;;5.39;100.00;102341.22;10409850;28;20076;-67
2024/01/29 02:07:19;;;;;;;10.27;9.15;;;;;;;5.39;100.00;102336.69;10410012;28;20047;-67
2024/01/29 02:12:20;;;;;;;10.55;7.75;;;;;;;5.28;100.00;102340.28;10409182;28;20055;-66
2024/01/29 02:17:21;;;;;;;13.93;9.00;;;;;;;5.16;100.00;102338.59;10409957;28;20041;-66
2024/01/29 02:22:21;;;;;;;14.07;8.13;;;;;;;5.21;100.00;102340.94;10409887;28;20473;-66
2024/01/29 02:27:22;;;;;;;9.82;7.25;;;;;;;5.23;100.00;102334.44;10408633;28;20116;-66
2024/01/29 02:32:22;;;;;;;9.10;8.02;;;;;;;5.26;100.00;102336.84;10441471;28;20511;-67
2024/01/29 02:37:22;;;;;;;10.25;8.57;;;;;;;5.42;100.00;102346.31;10409191;28;20037;-66
2024/01/29 02:42:23;;;;;;;17.33;9.05;;;;;;;5.46;100.00;102343.28;10408199;28;20450;-67
2024/01/29 02:47:23;;;;;;;11.02;8.63;;;;;;;5.51;100.00;102350.94;10408388;28;20125;-67
2024/01/29 02:52:24;;;;;;;9.30;7.35;;;;;;;5.59;100.00;102337.72;10439965;28;20065;-66
2024/01/29 02:57:24;;;;;;;11.98;7.93;;;;;;;5.57;100.00;102343.22;10408031;28;20141;-66
2024/01/29 03:02:25;;;;;;;9.27;7.60;;;;;;;5.56;100.00;102354.09;10440653;28;20031;-69
2024/01/29 03:07:25;;;;;;;11.02;7.88;;;;;;;5.47;100.00;102360.25;10408421;28;20041;-65
2024/01/29 03:12:26;;;;;;;9.88;8.02;;;;;;;5.48;100.00;102359.25;10406724;28;20704;-66
2024/01/29 03:17:26;;;;;;;13.63;8.23;;;;;;;5.50;100.00;102354.59;10407617;28;20037;-67
2024/01/29 03:22:27;;;;;;;10.30;8.02;;;;;;;5.42;100.00;102390.16;10408587;28;20139;-66
2024/01/29 03:27:27;;;;;;;10.13;8.05;;;;;;;5.35;100.00;102387.13;10413453;28;20048;-67
2024/01/29 03:32:27;;;;;;;8.23;7.22;;;;;;;5.34;100.00;102381.91;10416544;28;20038;-66
2024/01/29 03:37:28;;;;;;;13.25;8.52;;;;;;;5.38;100.00;102387.88;10415532;28;20092;-67
2024/01/29 03:42:28;;;;;;;8.68;7.82;;;;;;;5.37;100.00;102384.34;10396852;28;20033;-67
2024/01/29 03:47:28;;;;;;;8.70;7.85;;;;;;;5.40;100.00;102383.22;10421480;28;20057;-66
2024/01/29 03:52:30;;;;;;;14.63;8.25;;;;;;;5.40;100.00;102378.72;10427129;28;20408;-67
2024/01/29 03:57:30;;;;;;;9.35;7.13;;;;;;;5.31;100.00;102374.94;10418877;28;20051;-67
2024/01/29 04:02:30;;;;;;;9.70;7.72;;;;;;;5.25;100.00;102351.28;10446528;28;20188;-66
2024/01/29 04:07:31;;;;;;;10.25;8.40;;;;;;;5.31;100.00;102361.50;10414106;28;20057;-67
2024/01/29 04:12:31;;;;;;;12.88;7.82;;;;;;;5.19;100.00;102354.47;10445689;28;20048;-67
2024/01/29 04:17:32;;;;;;;13.50;8.15;;;;;;;5.21;100.00;102348.97;10445124;28;20107;-66
2024/01/29 04:22:33;;;;;;;9.05;7.75;;;;;;;5.27;100.00;102359.22;10411944;28;20045;-66
2024/01/29 04:27:33;;;;;;;11.30;8.90;;;;;;;5.21;100.00;102357.03;10427551;28;20027;-66
2024/01/29 04:32:34;;;;;;;11.00;8.25;;;;;;;5.20;100.00;102363.38;10412191;28;20153;-67
2024/01/29 04:37:34;;;;;;;10.10;8.85;;;;;;;5.12;100.00;102355.97;10412091;28;20456;-67
2024/01/29 04:42:34;;;;;;;9.05;8.10;;;;;;;5.08;100.00;102349.13;10444365;28;20049;-65
2024/01/29 04:47:35;;;;;;;13.07;9.73;;;;;;;5.04;100.00;102348.53;10412144;28;20052;-66
2024/01/29 04:52:36;;;;;;;10.88;8.77;;;;;;;5.00;100.00;102346.22;10411648;28;20147;-65
2024/01/29 04:57:37;;;;;;;8.90;7.60;;;;;;;5.04;100.00;102356.59;10411061;28;20175;-66
2024/01/29 05:02:37;;;;;;;10.75;9.43;;;;;;;5.06;100.00;102380.63;10443101;28;20146;-66
2024/01/29 05:07:37;;;;;;;13.75;9.50;;;;;;;5.01;100.00;102380.13;10441410;28;20424;-66
2024/01/29 05:12:38;;;;;;;16.85;9.32;;;;;;;5.03;100.00;102388.94;10369768;28;20124;-67
2024/01/29 05:17:38;;;;;;;12.05;8.65;;;;;;;5.13;100.00;102395.25;10369640;28;20460;-66
2024/01/29 05:22:40;;;;;;;11.32;9.18;;;;;;;5.13;100.00;102397.94;10384621;28;20038;-67
2024/01/29 05:27:40;;;;;;;11.38;8.77;;;;;;;5.07;100.00;102401.13;10367799;28;20386;-66
2024/01/29 05:32:41;;;;;;;10.70;9.65;;;;;;;5.08;100.00;102403.69;10369202;28;20092;-66
2024/01/29 05:37:41;;;;;;;13.93;7.95;;;;;;;5.00;100.00;102402.59;10368769;28;20116;-67
2024/01/29 05:42:42;;;;;;;11.65;9.15;;;;;;;5.05;100.00;102403.09;10368881;28;20528;-66
2024/01/29 05:47:42;;;;;;;13.80;10.00;;;;;;;5.02;100.00;102400.66;10366238;28;20049;-66
2024/01/29 05:52:43;;;;;;;13.15;9.57;;;;;;;5.02;100.00;102389.91;10366692;28;20127;-66
2024/01/29 05:57:43;;;;;;;11.35;9.13;;;;;;;5.00;100.00;102381.97;10367700;28;20132;-65
2024/01/29 06:02:45;;;;;;;9.57;8.55;;;;;;;5.04;100.00;102383.44;10368120;28;20049;-66
2024/01/29 06:07:46;;;;;;;15.38;10.05;;;;;;;5.04;100.00;102390.63;10369483;28;20169;-67
2024/01/29 06:12:47;;;;;;;10.88;9.77;;;;;;;5.06;100.00;102391.34;10369192;28;20121;-67
2024/01/29 06:17:47;;;;;;;9.95;8.27;;;;;;;5.09;100.00;102399.16;10369012;28;20038;-67
2024/01/29 06:22:48;;;;;;;13.57;9.82;;;;;;;5.11;100.00;102391.84;10366972;28;20037;-67
2024/01/29 06:27:48;;;;;;;12.32;9.40;;;;;;;5.20;100.00;102391.09;10365997;28;20042;-69
2024/01/29 06:32:49;;;;;;;12.93;9.65;;;;;;;5.19;100.00;102383.16;10366097;28;20045;-66
2024/01/29 06:37:49;;;;;;;11.75;9.38;;;;;;;5.18;100.00;102389.53;10366349;28;20045;-66
2024/01/29 06:42:49;;;;;;;15.80;10.38;;;;;;;5.15;100.00;102411.25;10366312;28;20042;-67
2024/01/29 06:47:50;;;;;;;16.90;10.50;;;;;;;5.18;100.00;102416.38;10366093;28;20369;-67
2024/01/29 06:52:50;;;;;;;10.85;9.85;;;;;;;5.17;100.00;102415.53;10366469;28;20065;-66
2024/01/29 06:57:51;;;;;;;15.70;9.95;;;;;;;5.06;100.00;102405.63;10367695;28;20100;-67
2024/01/29 07:02:51;;;;;;;19.02;10.02;;;;;;;5.11;100.00;102408.81;10373896;28;20034;-66
2024/01/29 07:07:51;;;;;;;11.35;9.93;;;;;;;5.13;100.00;102411.34;10373563;28;20112;-68
2024/01/29 07:12:52;;;;;;;15.10;10.60;;;;;;;5.02;100.00;102414.06;10372249;28;20034;-67
2024/01/29 07:17:52;;;;;;;12.60;10.20;;;;;;;5.18;100.00;102429.78;10372174;28;20125;-68
2024/01/29 07:22:53;;;;;;;12.10;9.60;;;;;;;5.20;100.00;102439.44;10374165;28;20181;-68
2024/01/29 07:27:55;;;;;;;17.17;9.95;;;;;;;5.25;100.00;102445.28;10355325;28;20436;-68
2024/01/29 07:32:57;;;;;;;13.98;11.38;;;;;;;5.22;100.00;102448.22;10372915;28;20042;-66
2024/01/29 07:37:57;;;;;;;11.07;8.88;;;;;;;5.32;100.00;102451.84;10371577;28;20036;-66
2024/01/29 07:42:57;;;;;;;12.57;10.77;;;;;;;5.41;100.00;102446.72;10373348;28;20053;-66
2024/01/29 07:47:59;;;;;;;12.38;9.73;;;;;;;5.42;100.00;102448.41;10372629;28;20132;-69
2024/01/29 07:52:59;;;;;;;15.93;11.18;;;;;;;5.49;100.00;102457.69;10372728;28;20046;-66
2024/01/29 07:58:00;;;;;;;11.57;10.38;;;;;;;5.47;100.00;102456.97;10371410;28;20621;-67
2024/01/29 08:03:00;;;;;;;16.00;10.38;;;;;;;5.45;100.00;102464.28;10373603;28;20044;-67
2024/01/29 08:08:01;;;;;;;10.50;9.10;;;;;;;5.43;100.00;102460.88;10370262;28;20049;-67
2024/01/29 08:13:02;;;;;;;15.40;11.77;;;;;;;5.44;100.00;102458.06;10372778;28;20141;-68
2024/01/29 08:18:02;;;;;;;14.20;11.68;;;;;;;5.55;100.00;102470.59;10403027;28;20069;-67
2024/01/29 08:23:03;;;;;;;10.95;9.88;;;;;;;5.73;100.00;102460.19;10370162;28;20063;-69
2024/01/29 08:28:04;;;;;;;14.10;11.90;;;;;;;5.97;100.00;102463.53;10371217;28;20132;-66
2024/01/29 08:33:04;;;;;;;19.50;11.63;;;;;;;6.14;100.00;102463.94;10370838;28;20142;-66
2024/01/29 08:38:04;;;;;;;12.13;9.68;;;;;;;6.24;100.00;102459.50;10370775;28;20030;-65
2024/01/29 08:43:05;;;;;;;13.77;10.68;;;;;;;6.26;100.00;102471.00;10385418;28;20093;-66
2024/01/29 08:48:06;;;;;;;16.27;11.02;;;;;;;6.37;100.00;102473.59;10369070;28;20070;-66
2024/01/29 08:53:07;;;;;;;13.35;12.00;;;;;;;6.47;100.00;102462.88;10368771;28;20489;-67
2024/01/29 08:58:07;;;;;;;15.00;10.85;;;;;;;6.89;100.00;102452.94;10367791;28;20042;-66
2024/01/29 09:03:09;;;;;;;15.90;11.25;;;;;;;7.49;100.00;102455.66;10368429;28;20631;-68
2024/01/29 09:08:10;;;;;;;11.18;9.48;;;;;;;7.80;100.00;102458.25;10369078;28;20474;-67
2024/01/29 09:13:10;;;;;;;12.20;8.90;;;;;;;7.95;100.00;102473.03;10369307;28;20068;-67
2024/01/29 09:18:10;;;;;;;14.48;9.98;;;;;;;8.09;100.00;102469.88;10369490;28;20099;-67
2024/01/29 09:23:11;;;;;;;10.82;9.60;;;;;;;8.35;100.00;102480.94;10369256;28;20096;-67
2024/01/29 09:28:11;;;;;;;11.52;9.52;;;;;;;8.90;100.00;102479.41;10368867;28;20030;-68
2024/01/29 09:33:12;;;;;;;9.75;8.23;;;;;;;9.47;100.00;102470.16;10367565;28;20037;-68
2024/01/29 09:38:15;;;;;;;11.82;8.30;;;;;;;10.16;100.00;102479.47;10367435;28;20054;-66
2024/01/29 09:43:17;;;;;;;10.55;8.75;;;;;;;10.43;100.00;102483.97;10382975;28;20545;-68
2024/01/29 09:48:17;;;;;;;9.30;8.35;;;;;;;10.63;100.00;102494.63;10368168;28;20057;-66
2024/01/29 09:53:20;;;;;;;8.90;8.00;;;;;;;10.86;100.00;102503.06;10366615;28;20046;-65
2024/01/29 09:58:21;;;;;;;9.00;8.05;;;;;;;11.39;100.00;102508.25;10365672;28;20053;-67
2024/01/29 10:03:27;;;;;;;9.45;8.55;;;;;;;11.50;100.00;102509.78;10366055;28;20053;-66
2024/01/29 10:08:28;;;;;;;10.95;8.25;;;;;;;11.61;100.00;102514.94;10367129;28;20034;-67
2024/01/29 10:13:29;;;;;;;10.80;8.88;;;;;;;11.52;100.00;102515.91;10367289;28;20077;-65
2024/01/29 10:18:30;;;;;;;8.98;7.85;;;;;;;11.78;100.00;102518.53;10367393;28;20058;-64
2024/01/29 10:23:30;;;;;;;19.13;9.23;;;;;;;12.14;100.00;102523.72;10365518;28;20045;-66
2024/01/29 10:28:31;;;;;;;9.43;7.78;;;;;;;12.17;100.00;102530.69;10366406;28;20038;-65
2024/01/29 10:33:31;;;;;;;13.05;10.27;;;;;;;12.28;100.00;102523.06;10368810;28;20164;-67
2024/01/29 10:38:31;;;;;;;18.92;11.75;;;;;;;12.22;100.00;102522.84;10374920;28;20123;-67
2024/01/29 10:43:36;;;;;;;24.40;11.25;;;;;;;12.46;100.00;102525.59;10390206;28;20052;-66
2024/01/29 10:48:36;;;;;;;14.95;11.52;;;;;;;12.57;100.00;102527.09;10367054;28;20117;-66
2024/01/29 10:53:37;;;;;;;18.23;13.73;;;;;;;12.71;100.00;102522.88;10365271;28;20740;-66
2024/01/29 10:58:38;;;;;;;11.63;10.45;;;;;;;12.71;100.00;102523.72;10364921;28;20400;-66
2024/01/29 11:03:38;;;;;;;14.80;11.27;;;;;;;12.80;100.00;102519.13;10334699;28;20034;-67
2024/01/29 11:08:39;;;;;;;12.95;9.30;;;;;;;12.83;100.00;102515.19;10381940;28;20367;-67
2024/01/29 11:13:40;;;;;;;18.00;8.93;;;;;;;12.72;100.00;102514.53;10358389;28;20441;-66
2024/01/29 11:18:40;;;;;;;16.00;11.35;;;;;;;12.73;100.00;102520.81;10423276;28;20065;-66
2024/01/29 11:23:43;;;;;;;11.07;9.93;;;;;;;13.08;100.00;102508.69;10375007;28;20034;-66
2024/01/29 11:28:44;;;;;;;20.83;10.23;;;;;;;13.65;100.00;102502.16;10373135;28;20040;-68
2024/01/29 11:33:44;;;;;;;15.98;9.18;;;;;;;13.66;100.00;102496.56;10373215;28;20042;-67
2024/01/29 11:38:44;;;;;;;14.77;9.88;;;;;;;13.70;100.00;102503.31;10372466;28;20075;-67
2024/01/29 11:43:45;;;;;;;11.68;7.82;;;;;;;13.42;100.00;102505.69;10419873;28;20037;-67
2024/01/29 11:48:45;;;;;;;10.55;8.93;;;;;;;13.75;100.00;102504.66;10420209;28;20144;-67
2024/01/29 11:53:50;;;;;;;10.45;8.27;;;;;;;13.98;100.00;102505.53;10403851;28;20107;-65
2024/01/29 11:59:04;;;;;;;9.50;8.55;;;;;;;14.18;100.00;102487.66;10371254;28;20037;-66
2024/01/29 12:04:04;;;;;;;15.48;8.93;;;;;;;14.57;100.00;102497.56;10386349;28;20038;-66
2024/01/29 12:09:10;;;;;;;11.07;8.55;;;;;;;14.48;100.00;102495.94;10371431;28;20038;-68
2024/01/29 12:14:11;;;;;;;10.82;8.95;;;;;;;14.29;100.00;102493.72;10371544;28;20137;-67
2024/01/29 12:19:11;;;;;;;10.93;7.78;;;;;;;13.93;100.00;102491.63;10371213;28;20533;-66
2024/01/29 12:24:13;;;;;;;12.73;8.48;;;;;;;13.91;100.00;102477.31;10386009;28;20554;-68
2024/01/29 12:29:13;;;;;;;12.63;8.77;;;;;;;14.00;100.00;102483.56;10418348;28;20091;-66
2024/01/29 12:34:20;;;;;;;8.23;7.43;;;;;;;14.06;100.00;102491.84;10370895;28;20092;-67
2024/01/29 12:39:20;;;;;;;19.48;8.38;;;;;;;13.86;100.00;102490.66;10370628;28;20062;-66
2024/01/29 12:44:21;;;;;;;8.40;7.57;;;;;;;13.51;100.00;102487.44;10371207;28;20088;-65
2024/01/29 12:49:21;;;;;;;9.70;8.70;;;;;;;13.38;100.00;102479.00;10370586;28;20053;-66
2024/01/29 12:54:22;;;;;;;9.23;8.25;;;;;;;13.37;100.00;102485.47;10370617;28;20152;-66
2024/01/29 12:59:22;;;;;;;8.93;8.10;;;;;;;13.15;100.00;102477.03;10370312;28;20042;-66
2024/01/29 13:04:22;;;;;;;13.18;9.07;;;;;;;12.92;100.00;102462.47;10370146;28;20042;-67
2024/01/29 13:09:23;;;;;;;11.75;8.57;;;;;;;12.62;100.00;102473.09;10401182;28;20037;-68
2024/01/29 13:14:23;;;;;;;9.75;8.13;;;;;;;12.84;100.00;102465.25;10384534;28;20037;-66
2024/01/29 13:19:24;;;;;;;10.27;8.40;;;;;;;13.13;100.00;102468.19;10369759;28;20073;-66
2024/01/29 13:24:24;;;;;;;10.80;8.82;;;;;;;13.15;100.00;102471.59;10367576;28;20422;-67
2024/01/29 13:29:24;;;;;;;9.43;8.55;;;;;;;13.28;100.00;102479.22;10399026;28;20049;-69
2024/01/29 13:34:25;;;;;;;11.10;8.85;;;;;;;13.10;100.00;102475.84;10348438;28;20042;-68
2024/01/29 13:39:25;;;;;;;7.82;6.88;;;;;;;12.57;100.00;102467.31;10375818;28;20078;-67
2024/01/29 13:44:26;;;;;;;12.10;9.82;;;;;;;12.40;100.00;102466.50;10442377;28;20412;-67
2024/01/29 13:49:27;;;;;;;11.95;7.60;;;;;;;12.02;100.00;102451.75;10441076;28;20360;-66
2024/01/29 13:54:27;;;;;;;14.50;9.32;;;;;;;12.02;100.00;102459.88;10384880;28;20059;-66
2024/01/29 13:59:28;;;;;;;20.60;10.10;;;;;;;11.95;100.00;102462.44;10367385;28;20159;-67
2024/01/29 14:04:29;;;;;;;12.57;9.35;;;;;;;11.94;100.00;102460.75;10366724;28;20125;-66
2024/01/29 14:09:29;;;;;;;16.02;9.60;;;;;;;11.93;100.00;102477.19;10367322;28;20112;-68
2024/01/29 14:14:30;;;;;;;11.60;9.60;;;;;;;11.77;100.00;102473.41;10367503;28;20149;-65
2024/01/29 14:19:30;;;;;;;15.15;8.52;;;;;;;11.75;100.00;102480.03;10366007;28;20034;-67
2024/01/29 14:24:32;;;;;;;11.63;9.50;;;;;;;11.68;100.00;102488.00;10366782;28;20057;-66
2024/01/29 14:29:32;;;;;;;9.93;7.65;;;;;;;11.60;100.00;102496.09;10377839;28;20495;-68
2024/01/29 14:34:33;;;;;;;14.93;9.63;;;;;;;11.50;100.00;102489.97;10374044;28;20119;-70
2024/01/29 14:39:33;;;;;;;13.40;9.23;;;;;;;11.53;100.00;102497.78;10364672;28;20390;-67
2024/01/29 14:44:34;;;;;;;16.65;9.45;;;;;;;11.48;100.00;102503.69;10398109;28;20117;-67
2024/01/29 14:49:35;;;;;;;10.15;9.07;;;;;;;11.34;100.00;102510.59;10365959;28;20539;-68
2024/01/29 14:54:35;;;;;;;14.65;10.40;;;;;;;11.47;100.00;102509.28;10365589;28;20137;-67
2024/01/29 14:59:36;;;;;;;13.07;10.30;;;;;;;11.36;100.00;102507.72;10379809;28;20038;-68
2024/01/29 15:04:37;;;;;;;10.38;9.32;;;;;;;11.41;100.00;102522.47;10366112;28;20348;-66
2024/01/29 15:09:37;;;;;;;12.02;8.43;;;;;;;11.31;100.00;102518.19;10365758;28;20077;-68
2024/01/29 15:14:37;;;;;;;12.40;9.55;;;;;;;11.18;100.00;102518.66;10365435;28;20026;-68
2024/01/29 15:19:38;;;;;;;13.25;9.23;;;;;;;11.13;100.00;102521.81;10384046;28;20070;-67
2024/01/29 15:24:38;;;;;;;12.60;8.45;;;;;;;10.94;100.00;102508.50;10373403;28;20038;-67
2024/01/29 15:29:39;;;;;;;16.42;9.50;;;;;;;10.77;100.00;102515.69;10416873;28;20030;-67
2024/01/29 15:34:47;;;;;;;12.30;9.77;;;;;;;10.53;100.00;102518.22;10445643;28;20037;-66
2024/01/29 15:39:47;;;;;;;15.25;9.30;;;;;;;10.47;100.00;102525.13;10445525;28;20058;-67
2024/01/29 15:44:48;;;;;;;17.38;10.00;;;;;;;10.32;100.00;102527.53;10444136;28;20037;-69
2024/01/29 15:49:48;;;;;;;12.80;9.75;;;;;;;10.10;100.00;102509.03;10371935;28;20140;-68
2024/01/29 15:54:48;;;;;;;12.20;9.48;;;;;;;9.95;100.00;102533.91;10389539;28;20048;-66
2024/01/29 15:59:49;;;;;;;17.02;10.18;;;;;;;9.95;100.00;102536.63;10376025;28;20069;-66
2024/01/29 16:04:51;;;;;;;13.23;9.00;;;;;;;9.77;100.00;102530.34;10377222;28;20414;-65
2024/01/29 16:09:51;;;;;;;11.23;9.32;;;;;;;9.67;100.00;102526.88;10357745;28;20041;-66
2024/01/29 16:14:52;;;;;;;17.73;10.52;;;;;;;9.61;100.00;102525.63;10373465;28;20046;-66
2024/01/29 16:19:52;;;;;;;15.10;10.05;;;;;;;9.53;100.00;102520.94;10371934;28;20045;-67
2024/01/29 16:24:52;;;;;;;15.52;10.75;;;;;;;9.45;100.00;102518.16;10371789;28;20034;-68
2024/01/29 16:29:54;;;;;;;14.55;11.57;;;;;;;9.49;100.00;102516.00;10369918;28;20057;-66
2024/01/29 16:34:55;;;;;;;14.90;11.50;;;;;;;9.46;100.00;102519.00;10370798;28;20553;-66
2024/01/29 16:39:56;;;;;;;12.00;10.73;;;;;;;9.40;100.00;102525.00;10369525;28;20030;-65
2024/01/29 16:44:56;;;;;;;14.25;11.50;;;;;;;9.45;100.00;102528.13;10370120;28;20100;-67
2024/01/29 16:49:56;;;;;;;15.73;12.93;;;;;;;9.47;100.00;102523.41;10368414;28;20516;-66
2024/01/29 16:54:57;;;;;;;12.38;11.05;;;;;;;9.51;100.00;102527.53;10369879;28;20042;-66
2024/01/29 16:59:57;;;;;;;22.08;11.32;;;;;;;9.54;100.00;102527.22;10383841;28;20083;-66
2024/01/29 17:04:58;;;;;;;18.25;12.85;;;;;;;9.57;100.00;102526.03;10368951;28;20045;-65
2024/01/29 17:09:58;;;;;;;16.25;10.70;;;;;;;9.67;100.00;102549.34;10367430;28;20381;-66
2024/01/29 17:14:59;;;;;;;17.25;12.02;;;;;;;9.65;100.00;102534.28;10368540;28;20075;-65
2024/01/29 17:19:59;;;;;;;19.52;14.10;;;;;;;9.70;100.00;102545.47;10369029;28;20041;-67
2024/01/29 17:24:59;;;;;;;16.35;11.52;;;;;;;9.74;100.00;102538.78;10383632;28;20048;-65
2024/01/29 17:30:00;;;;;;;21.33;13.07;;;;;;;9.72;100.00;102538.06;10366533;28;20033;-67
2024/01/29 17:35:00;;;;;;;20.05;14.13;;;;;;;9.71;100.00;102544.50;10368466;28;20473;-65
2024/01/29 17:40:01;;;;;;;20.45;13.07;;;;;;;9.69;100.00;102531.09;10367987;28;20030;-65
2024/01/29 17:45:01;;;;;;;21.23;13.15;;;;;;;9.72;100.00;102540.78;10365955;28;20065;-66
2024/01/29 17:50:04;;;;;;;18.10;13.15;;;;;;;9.64;100.00;102532.59;10374756;28;20049;-67
2024/01/29 17:55:05;;;;;;;15.60;13.48;;;;;;;9.59;100.00;102529.47;10370472;28;20042;-65
2024/01/29 18:00:06;;;;;;;19.05;12.70;;;;;;;9.49;100.00;102535.78;10370424;28;20112;-66
2024/01/29 18:05:06;;;;;;;15.90;12.88;;;;;;;9.35;100.00;102533.59;10369364;28;20041;-67
2024/01/29 18:10:07;;;;;;;15.93;12.35;;;;;;;9.35;100.00;102528.19;10368168;28;20038;-65
2024/01/29 18:15:08;;;;;;;16.35;12.95;;;;;;;9.26;100.00;102529.06;10366372;28;20034;-67
2024/01/29 18:20:08;;;;;;;15.90;13.55;;;;;;;9.21;100.00;102531.34;10368087;28;20065;-66
2024/01/29 18:25:09;;;;;;;21.15;13.40;;;;;;;9.18;100.00;102528.94;10366647;28;20034;-66
2024/01/29 18:30:13;;;;;;;23.15;14.68;;;;;;;9.15;100.00;102535.50;10368153;28;20101;-67
2024/01/29 18:35:13;;;;;;;18.00;13.57;;;;;;;9.19;100.00;102536.91;10368566;28;20034;-67
2024/01/29 18:40:14;;;;;;;16.30;13.57;;;;;;;9.21;100.00;102523.25;10368716;28;20451;-66
2024/01/29 18:45:14;;;;;;;24.02;16.20;;;;;;;9.28;100.00;102516.22;10371826;28;20045;-65
2024/01/29 18:50:15;;;;;;;15.65;13.30;;;;;;;9.31;100.00;102521.34;10366533;28;20164;-65
2024/01/29 18:55:15;;;;;;;19.98;14.38;;;;;;;9.40;100.00;102515.03;10370758;28;20034;-66
2024/01/29 19:00:16;;;;;;;20.40;12.15;;;;;;;9.50;100.00;102513.13;10375104;28;20120;-68
2024/01/29 19:05:16;;;;;;;22.98;12.15;;;;;;;9.57;100.00;102515.22;10374390;28;20046;-66
2024/01/29 19:10:17;;;;;;;15.07;13.50;;;;;;;9.59;100.00;102507.84;10389299;28;20053;-66
2024/01/29 19:15:17;;;;;;;21.40;16.50;;;;;;;9.66;100.00;102512.47;10373632;28;20481;-66
2024/01/29 19:20:19;;;;;;;13.65;11.45;;;;;;;9.72;100.00;102513.72;10372700;28;20626;-66
2024/01/29 19:25:20;;;;;;;20.48;13.43;;;;;;;9.79;100.00;102512.09;10388388;28;20068;-65
2024/01/29 19:30:20;;;;;;;16.35;11.88;;;;;;;9.83;100.00;102509.94;10371504;28;20037;-67
2024/01/29 19:35:20;;;;;;;17.65;11.65;;;;;;;9.79;100.00;102498.56;10373001;28;20712;-65
2024/01/29 19:40:21;;;;;;;13.25;9.85;;;;;;;9.92;100.00;102504.47;10372453;28;20131;-66
2024/01/29 19:45:22;;;;;;;18.65;11.45;;;;;;;10.01;100.00;102499.97;10316551;28;20049;-68
2024/01/29 19:50:23;;;;;;;12.20;10.95;;;;;;;10.06;100.00;102500.38;10413570;28;20481;-68
2024/01/29 19:55:23;;;;;;;11.48;9.80;;;;;;;10.11;100.00;102505.31;10413582;28;20033;-66
2024/01/29 20:00:24;;;;;;;14.63;11.27;;;;;;;10.08;100.00;102506.47;10411084;28;20089;-66
2024/01/29 20:05:24;;;;;;;24.70;12.02;;;;;;;10.01;100.00;102491.84;10411602;28;20116;-67
2024/01/29 20:10:25;;;;;;;11.52;9.15;;;;;;;10.14;100.00;102489.59;10394907;28;20037;-67
2024/01/29 20:15:25;;;;;;;23.48;11.18;;;;;;;10.05;100.00;102484.28;10412411;28;20044;-67
2024/01/29 20:20:25;;;;;;;18.20;9.95;;;;;;;10.10;100.00;102485.50;10410616;28;20044;-67
2024/01/29 20:25:26;;;;;;;17.50;9.20;;;;;;;10.12;100.00;102498.91;10409924;28;20034;-67
2024/01/29 20:30:26;;;;;;;17.95;11.52;;;;;;;10.10;100.00;102495.50;10410904;28;20094;-66
2024/01/29 20:35:27;;;;;;;14.43;10.50;;;;;;;10.10;100.00;102496.34;10411442;28;20041;-68
2024/01/29 20:40:27;;;;;;;13.48;10.73;;;;;;;10.09;100.00;102482.97;10411125;28;20033;-65
2024/01/29 20:45:31;;;;;;;15.82;12.18;;;;;;;10.08;100.00;102479.41;10410892;28;20122;-66
2024/01/29 20:50:31;;;;;;;21.92;10.38;;;;;;;9.99;100.00;102470.38;10410841;28;20140;-68
2024/01/29 20:55:32;;;;;;;11.15;9.63;;;;;;;9.99;100.00;102483.91;10410780;28;20037;-67
2024/01/29 21:00:32;;;;;;;14.88;10.82;;;;;;;9.91;100.00;102459.47;10410135;28;20033;-66
2024/01/29 21:05:34;;;;;;;27.60;10.77;;;;;;;9.76;100.00;102461.88;10410574;28;20120;-67
2024/01/29 21:10:34;;;;;;;17.05;10.18;;;;;;;9.77;100.00;102466.28;10408910;28;20029;-68
2024/01/29 21:15:35;;;;;;;13.43;10.63;;;;;;;9.79;100.00;102471.50;10410115;28;20037;-68
2024/01/29 21:20:40;;;;;;;16.25;10.38;;;;;;;9.74;100.00;102465.75;10409736;28;20049;-68
2024/01/29 21:25:41;;;;;;;14.83;10.23;;;;;;;9.73;100.00;102474.84;10409925;28;20037;-66
2024/01/29 21:30:42;;;;;;;14.27;10.73;;;;;;;9.70;100.00;102467.91;10407359;28;20029;-67
2024/01/29 21:35:42;;;;;;;26.17;11.75;;;;;;;9.69;100.00;102474.28;10409377;28;20037;-67
2024/01/29 21:40:42;;;;;;;19.67;9.95;;;;;;;9.57;100.00;102472.81;10407875;28;20055;-67
2024/01/29 21:45:44;;;;;;;16.05;11.63;;;;;;;9.50;100.00;102480.69;10408792;28;20080;-67
2024/01/29 21:50:45;;;;;;;18.92;10.93;;;;;;;9.47;100.00;102483.69;10408629;28;20111;-66
2024/01/29 21:55:46;;;;;;;22.35;11.50;;;;;;;9.38;100.00;102481.91;10407279;28;20041;-67
2024/01/29 22:00:46;;;;;;;12.57;10.60;;;;;;;9.39;100.00;102483.59;10408340;28;20029;-67
2024/01/29 22:05:47;;;;;;;19.08;11.30;;;;;;;9.24;100.00;102475.13;10408948;28;20070;-66
2024/01/29 22:10:47;;;;;;;14.18;11.95;;;;;;;9.12;100.00;102451.16;10408408;28;20394;-67
2024/01/29 22:15:48;;;;;;;12.05;10.15;;;;;;;9.11;100.00;102468.38;10410045;28;20136;-67
2024/01/29 22:20:48;;;;;;;17.52;10.63;;;;;;;8.98;100.00;102453.34;10410465;28;20037;-66
2024/01/29 22:25:49;;;;;;;16.08;12.45;;;;;;;9.06;100.00;102464.28;10412004;28;20400;-66
2024/01/29 22:30:49;;;;;;;17.00;11.88;;;;;;;9.13;100.00;102455.59;10415899;28;20123;-67
2024/01/29 22:35:50;;;;;;;15.48;10.35;;;;;;;9.10;100.00;102474.81;10449916;28;20365;-67